createdAt,value
2017-11-11T00:00:35.552Z,74.90
2017-11-11T00:03:03.055Z,75.60
2017-11-11T00:05:31.348Z,74.30
2017-11-11T00:07:58.875Z,74.20
2017-11-11T00:10:26.380Z,74.30
2017-11-11T00:12:53.913Z,74.70
2017-11-11T00:15:22.174Z,74.10
2017-11-11T00:17:51.169Z,73.90
2017-11-11T00:20:18.667Z,73.80
2017-11-11T00:22:46.158Z,74.20
2017-11-11T00:25:13.668Z,74.00
2017-11-11T00:27:41.165Z,73.90
2017-11-11T00:30:08.652Z,74.00
2017-11-11T00:32:36.154Z,74.00
2017-11-11T00:35:03.940Z,74.20
2017-11-11T00:37:31.448Z,74.00
2017-11-11T00:39:59.037Z,74.20
2017-11-11T00:42:26.538Z,74.20
2017-11-11T00:44:54.043Z,74.00
2017-11-11T00:47:22.323Z,74.00
2017-11-11T00:49:50.619Z,73.70
2017-11-11T00:52:18.133Z,73.60
2017-11-11T00:54:46.409Z,73.80
2017-11-11T00:57:13.925Z,73.80
2017-11-11T00:59:41.670Z,74.00
2017-11-11T01:02:09.204Z,74.00
2017-11-11T01:04:37.456Z,74.40
2017-11-11T01:07:04.993Z,74.30
2017-11-11T01:09:32.499Z,74.30
2017-11-11T01:12:00.759Z,74.20
2017-11-11T01:14:28.258Z,74.20
2017-11-11T01:16:55.750Z,74.30
2017-11-11T01:19:23.245Z,73.80
2017-11-11T01:21:51.553Z,73.70
2017-11-11T01:24:19.044Z,73.60
2017-11-11T01:26:46.544Z,74.10
2017-11-11T01:29:14.784Z,74.10
2017-11-11T01:31:42.309Z,74.00
2017-11-11T01:34:09.809Z,74.00
2017-11-11T01:36:37.332Z,74.20
2017-11-11T01:39:04.837Z,74.40
2017-11-11T01:41:32.335Z,74.60
2017-11-11T01:44:00.201Z,74.30
2017-11-11T01:46:27.705Z,74.30
2017-11-11T01:48:55.197Z,74.20
2017-11-11T01:51:23.465Z,73.90
2017-11-11T01:53:50.958Z,73.80
2017-11-11T01:56:18.465Z,74.00
2017-11-11T01:58:45.936Z,73.80
2017-11-11T02:01:13.521Z,74.00
2017-11-11T02:03:41.824Z,74.00
2017-11-11T02:06:09.848Z,74.00
2017-11-11T02:08:38.139Z,73.80
2017-11-11T02:11:06.392Z,73.80
2017-11-11T02:13:34.044Z,73.80
2017-11-11T02:16:01.541Z,73.60
2017-11-11T02:18:29.821Z,74.30
2017-11-11T02:20:58.097Z,73.70
2017-11-11T02:23:26.364Z,73.60
2017-11-11T02:25:54.661Z,73.70
2017-11-11T02:28:22.165Z,73.70
2017-11-11T02:30:49.701Z,73.90
2017-11-11T02:33:17.209Z,74.20
2017-11-11T02:35:44.715Z,74.10
2017-11-11T02:38:12.209Z,73.90
2017-11-11T02:40:39.726Z,74.00
2017-11-11T02:43:07.210Z,73.90
2017-11-11T02:45:34.693Z,73.80
2017-11-11T02:48:02.196Z,74.20
2017-11-11T02:50:29.713Z,74.40
2017-11-11T02:52:57.220Z,74.40
2017-11-11T02:55:24.863Z,74.40
2017-11-11T02:57:53.118Z,74.70
2017-11-11T03:00:20.602Z,74.70
2017-11-11T03:02:48.108Z,74.70
2017-11-11T03:05:15.603Z,74.90
2017-11-11T03:07:43.858Z,75.10
2017-11-11T03:10:11.354Z,75.00
2017-11-11T03:12:38.845Z,75.00
2017-11-11T03:15:06.364Z,75.00
2017-11-11T03:17:34.610Z,75.60
2017-11-11T03:20:02.092Z,75.60
2017-11-11T03:22:30.366Z,76.20
2017-11-11T03:24:58.618Z,76.40
2017-11-11T03:27:26.430Z,76.40
2017-11-11T03:29:53.954Z,76.80
2017-11-11T03:32:21.460Z,77.20
2017-11-11T03:34:48.966Z,77.50
2017-11-11T03:37:16.498Z,77.70
2017-11-11T03:39:44.034Z,77.80
2017-11-11T03:42:11.524Z,78.10
2017-11-11T03:44:39.010Z,77.90
2017-11-11T03:47:07.289Z,77.90
2017-11-11T03:49:35.546Z,78.10
2017-11-11T03:52:03.063Z,77.90
2017-11-11T03:54:30.698Z,77.80
2017-11-11T03:56:58.963Z,77.80
2017-11-11T03:59:26.471Z,77.80
2017-11-11T04:01:54.011Z,77.20
2017-11-11T04:04:21.499Z,77.90
2017-11-11T04:06:49.001Z,77.80
2017-11-11T04:09:17.277Z,77.90
2017-11-11T04:11:45.542Z,78.20
2017-11-11T04:14:13.053Z,77.50
2017-11-11T04:16:40.549Z,78.40
2017-11-11T04:19:08.040Z,77.20
2017-11-11T04:21:36.313Z,77.10
2017-11-11T04:24:04.570Z,77.00
2017-11-11T04:26:32.064Z,76.80
2017-11-11T04:28:59.566Z,76.70
2017-11-11T04:31:27.694Z,77.00
2017-11-11T04:33:55.208Z,77.00
2017-11-11T04:36:22.710Z,77.10
2017-11-11T04:38:50.962Z,77.00
2017-11-11T04:41:18.467Z,76.90
2017-11-11T04:43:45.948Z,77.00
2017-11-11T04:46:13.735Z,77.10
2017-11-11T04:48:42.767Z,76.70
2017-11-11T04:51:11.013Z,76.30
2017-11-11T04:53:38.517Z,76.30
2017-11-11T04:56:06.013Z,76.10
2017-11-11T04:58:33.845Z,75.90
2017-11-11T05:01:01.328Z,75.90
2017-11-11T05:03:28.830Z,75.80
2017-11-11T05:05:57.104Z,75.60
2017-11-11T05:08:25.368Z,75.00
2017-11-11T05:10:52.872Z,74.90
2017-11-11T05:13:20.362Z,75.00
2017-11-11T05:15:47.867Z,74.50
2017-11-11T05:18:16.149Z,74.20
2017-11-11T05:20:44.508Z,74.30
2017-11-11T05:23:12.775Z,75.40
2017-11-11T05:25:40.290Z,74.60
2017-11-11T05:28:07.789Z,74.70
2017-11-11T05:30:35.372Z,75.00
2017-11-11T05:33:04.478Z,75.50
2017-11-11T05:35:32.236Z,75.40
2017-11-11T05:38:00.501Z,75.80
2017-11-11T05:40:28.777Z,76.80
2017-11-11T05:42:57.040Z,76.20
2017-11-11T05:45:24.529Z,76.20
2017-11-11T05:47:52.077Z,76.30
2017-11-11T05:50:20.353Z,77.00
2017-11-11T05:52:48.628Z,77.30
2017-11-11T05:55:16.877Z,77.40
2017-11-11T05:57:44.372Z,77.40
2017-11-11T06:00:12.652Z,77.50
2017-11-11T06:02:40.913Z,77.70
2017-11-11T06:05:09.292Z,78.30
2017-11-11T06:07:37.551Z,77.90
2017-11-11T06:10:05.042Z,77.90
2017-11-11T06:12:33.314Z,77.90
2017-11-11T06:15:01.573Z,78.00
2017-11-11T06:17:29.102Z,77.90
2017-11-11T06:19:56.575Z,77.90
2017-11-11T06:22:24.073Z,77.70
2017-11-11T06:24:52.333Z,77.90
2017-11-11T06:27:20.595Z,78.40
2017-11-11T06:29:48.197Z,77.90
2017-11-11T06:32:15.729Z,77.80
2017-11-11T06:34:44.185Z,77.70
2017-11-11T06:37:11.690Z,77.60
2017-11-11T06:39:39.173Z,77.60
2017-11-11T06:42:06.690Z,78.00
2017-11-11T06:44:34.975Z,78.50
2017-11-11T06:47:03.276Z,78.90
2017-11-11T06:49:30.804Z,78.90
2017-11-11T06:51:59.131Z,79.50
2017-11-11T06:54:26.763Z,79.50
2017-11-11T06:56:54.293Z,79.50
2017-11-11T06:59:22.614Z,80.00
2017-11-11T07:01:50.122Z,79.20
2017-11-11T07:04:17.623Z,79.50
2017-11-11T07:06:45.145Z,79.50
2017-11-11T07:09:12.741Z,79.50
2017-11-11T07:11:40.269Z,79.70
2017-11-11T07:14:07.756Z,79.50
2017-11-11T07:16:35.313Z,80.50
2017-11-11T07:19:03.666Z,79.90
2017-11-11T07:21:32.028Z,79.30
2017-11-11T07:23:59.841Z,79.10
2017-11-11T07:26:28.210Z,78.90
2017-11-11T07:28:56.473Z,78.80
2017-11-11T07:31:24.805Z,78.80
2017-11-11T07:33:52.422Z,78.80
2017-11-11T07:36:20.701Z,78.90
2017-11-11T07:38:48.281Z,78.90
2017-11-11T07:41:15.768Z,79.10
2017-11-11T07:43:43.276Z,79.30
2017-11-11T07:46:11.531Z,79.40
2017-11-11T07:48:39.059Z,79.30
2017-11-11T07:51:06.545Z,79.30
2017-11-11T07:53:34.028Z,79.30
2017-11-11T07:56:02.284Z,79.00
2017-11-11T07:58:29.875Z,79.00
2017-11-11T08:00:57.402Z,79.00
2017-11-11T08:03:24.893Z,79.10
2017-11-11T08:05:52.426Z,78.90
2017-11-11T08:08:19.914Z,78.70
2017-11-11T08:10:47.415Z,78.90
2017-11-11T08:13:14.920Z,78.30
2017-11-11T08:15:43.186Z,77.40
2017-11-11T08:18:11.451Z,77.00
2017-11-11T08:20:40.042Z,77.00
2017-11-11T08:23:07.647Z,77.00
2017-11-11T08:25:35.148Z,76.30
2017-11-11T08:28:02.690Z,76.40
2017-11-11T08:30:30.221Z,75.60
2017-11-11T08:32:57.726Z,76.20
2017-11-11T08:35:25.242Z,76.30
2017-11-11T08:37:52.796Z,76.20
2017-11-11T08:40:20.500Z,75.60
2017-11-11T08:42:47.991Z,75.20
2017-11-11T08:45:16.278Z,75.30
2017-11-11T08:47:43.802Z,75.30
2017-11-11T08:50:11.307Z,74.80
2017-11-11T08:52:38.798Z,74.10
2017-11-11T08:55:06.302Z,74.50
2017-11-11T08:57:34.555Z,73.60
2017-11-11T09:00:02.057Z,73.60
2017-11-11T09:02:29.548Z,73.60
2017-11-11T09:04:57.036Z,73.60
2017-11-11T09:07:24.534Z,73.00
2017-11-11T09:09:52.039Z,73.40
2017-11-11T09:12:19.546Z,72.70
2017-11-11T09:14:47.098Z,72.70
2017-11-11T09:17:15.378Z,72.40
2017-11-11T09:19:42.866Z,72.40
2017-11-11T09:22:10.392Z,71.50
2017-11-11T09:24:38.669Z,70.90
2017-11-11T09:27:06.931Z,69.70
2017-11-11T09:29:35.217Z,69.40
2017-11-11T09:32:03.477Z,69.40
2017-11-11T09:34:32.141Z,69.40
2017-11-11T09:36:59.684Z,69.10
2017-11-11T09:39:27.185Z,69.10
2017-11-11T09:41:54.970Z,68.80
2017-11-11T09:44:23.350Z,68.80
2017-11-11T09:46:50.974Z,68.80
2017-11-11T09:49:18.658Z,68.70
2017-11-11T09:51:47.100Z,69.60
2017-11-11T09:54:14.940Z,69.50
2017-11-11T09:56:42.476Z,70.50
2017-11-11T09:59:10.753Z,73.30
2017-11-11T10:01:39.018Z,73.50
2017-11-11T10:04:07.285Z,74.10
2017-11-11T10:06:34.877Z,74.20
2017-11-11T10:09:02.361Z,74.90
2017-11-11T10:11:29.849Z,75.00
2017-11-11T10:13:57.370Z,74.90
2017-11-11T10:16:24.874Z,76.50
2017-11-11T10:18:53.189Z,78.50
2017-11-11T10:21:20.713Z,78.50
2017-11-11T10:23:48.309Z,79.20
2017-11-11T10:26:16.163Z,79.30
2017-11-11T10:28:44.693Z,79.60
2017-11-11T10:31:12.205Z,79.50
2017-11-11T10:33:40.462Z,80.20
2017-11-11T10:36:08.024Z,80.20
2017-11-11T10:38:35.509Z,79.80
2017-11-11T10:41:03.036Z,80.40
2017-11-11T10:43:31.414Z,80.50
2017-11-11T10:45:58.936Z,80.20
2017-11-11T10:48:26.498Z,80.50
2017-11-11T10:50:54.020Z,80.70
2017-11-11T10:53:22.345Z,81.70
2017-11-11T10:55:49.869Z,81.70
2017-11-11T10:58:17.352Z,82.70
2017-11-11T11:00:44.873Z,82.60
2017-11-11T11:03:13.151Z,84.40
2017-11-11T11:05:41.462Z,82.20
2017-11-11T11:08:09.002Z,82.10
2017-11-11T11:10:36.531Z,81.30
2017-11-11T11:13:04.853Z,84.00
2017-11-11T11:15:32.359Z,83.40
2017-11-11T11:17:59.853Z,84.40
2017-11-11T11:20:27.389Z,84.90
2017-11-11T11:22:55.776Z,83.80
2017-11-11T11:25:24.142Z,84.00
2017-11-11T11:27:51.644Z,84.00
2017-11-11T11:30:19.370Z,83.10
2017-11-11T11:32:47.646Z,83.00
2017-11-11T11:35:15.921Z,83.10
2017-11-11T11:37:44.201Z,83.60
2017-11-11T11:40:12.476Z,83.00
2017-11-11T11:42:40.771Z,82.00
2017-11-11T11:45:08.282Z,82.80
2017-11-11T11:47:36.117Z,81.60
2017-11-11T11:50:03.683Z,80.70
2017-11-11T11:52:31.188Z,80.20
2017-11-11T11:54:58.703Z,77.50
2017-11-11T11:57:26.220Z,78.30
2017-11-11T11:59:54.472Z,78.10
2017-11-11T12:02:21.978Z,78.00
2017-11-11T12:04:49.542Z,78.00
2017-11-11T12:07:17.059Z,77.00
2017-11-11T12:09:44.587Z,77.20
2017-11-11T12:12:12.076Z,78.40
2017-11-11T12:14:39.585Z,77.60
2017-11-11T12:17:07.153Z,77.40
2017-11-11T12:19:34.676Z,78.30
2017-11-11T12:22:02.941Z,78.90
2017-11-11T12:24:31.229Z,79.30
2017-11-11T12:26:59.516Z,79.00
2017-11-11T12:29:27.031Z,79.00
2017-11-11T12:31:54.541Z,77.90
2017-11-11T12:34:22.056Z,78.20
2017-11-11T12:36:49.656Z,78.70
2017-11-11T12:39:17.196Z,79.20
2017-11-11T12:41:45.474Z,79.10
2017-11-11T12:44:13.873Z,78.40
2017-11-11T12:46:41.368Z,78.40
2017-11-11T12:49:08.853Z,79.80
2017-11-11T12:51:36.367Z,80.80
2017-11-11T12:54:03.849Z,81.00
2017-11-11T12:56:31.387Z,82.20
2017-11-11T12:58:58.895Z,81.50
2017-11-11T13:01:26.418Z,82.10
2017-11-11T13:03:53.901Z,83.00
2017-11-11T13:06:21.494Z,82.50
2017-11-11T13:08:49.757Z,83.50
2017-11-11T13:11:18.022Z,83.90
2017-11-11T13:13:45.586Z,84.60
2017-11-11T13:16:13.073Z,83.90
2017-11-11T13:18:40.620Z,84.30
2017-11-11T13:21:08.893Z,84.90
2017-11-11T13:23:37.178Z,84.50
2017-11-11T13:26:04.693Z,84.50
2017-11-11T13:28:32.186Z,84.50
2017-11-11T13:31:01.476Z,84.50
2017-11-11T13:33:28.986Z,84.40
2017-11-11T13:35:56.480Z,83.90
2017-11-11T13:38:24.085Z,84.80
2017-11-11T13:40:51.570Z,84.90
2017-11-11T13:43:19.187Z,85.10
2017-11-11T13:45:46.718Z,84.90
2017-11-11T13:48:14.207Z,84.70
2017-11-11T13:50:43.452Z,85.50
2017-11-11T13:53:10.973Z,85.50
2017-11-11T13:55:39.226Z,85.70
2017-11-11T13:58:06.726Z,85.50
2017-11-11T14:00:34.229Z,85.60
2017-11-11T14:03:01.848Z,86.20
2017-11-11T14:05:29.357Z,86.20
2017-11-11T14:07:56.864Z,86.00
2017-11-11T14:10:24.362Z,86.00
2017-11-11T14:12:52.527Z,86.40
2017-11-11T14:15:20.936Z,86.40
2017-11-11T14:17:49.190Z,86.70
2017-11-11T14:20:16.977Z,86.60
2017-11-11T14:22:44.526Z,86.30
2017-11-11T14:25:12.018Z,86.30
2017-11-11T14:27:41.134Z,85.90
2017-11-11T14:30:08.647Z,85.90
2017-11-11T14:32:36.446Z,85.70
2017-11-11T14:35:03.936Z,85.30
2017-11-11T14:37:31.420Z,85.40
2017-11-11T14:39:58.921Z,85.20
2017-11-11T14:42:26.414Z,85.90
2017-11-11T14:44:53.928Z,85.20
2017-11-11T14:47:22.185Z,85.10
2017-11-11T14:49:49.678Z,85.10
2017-11-11T14:52:17.182Z,85.20
2017-11-11T14:54:44.679Z,86.10
2017-11-11T14:57:12.954Z,85.10
2017-11-11T14:59:41.209Z,84.80
2017-11-11T15:02:08.698Z,84.80
2017-11-11T15:04:36.189Z,84.80
2017-11-11T15:07:03.686Z,84.90
2017-11-11T15:09:31.202Z,84.60
2017-11-11T15:11:58.702Z,84.40
2017-11-11T15:14:26.289Z,84.50
2017-11-11T15:16:54.075Z,84.60
2017-11-11T15:19:21.574Z,84.10
2017-11-11T15:21:49.081Z,83.90
2017-11-11T15:24:16.584Z,84.00
2017-11-11T15:26:44.197Z,83.80
2017-11-11T15:29:11.697Z,84.20
2017-11-11T15:31:39.201Z,84.20
2017-11-11T15:34:07.470Z,84.00
2017-11-11T15:36:35.727Z,83.90
2017-11-11T15:39:03.581Z,83.70
2017-11-11T15:41:31.076Z,83.90
2017-11-11T15:43:59.344Z,84.40
2017-11-11T15:46:26.845Z,84.30
2017-11-11T15:48:54.337Z,83.90
2017-11-11T15:51:21.952Z,84.20
2017-11-11T15:53:49.573Z,84.40
2017-11-11T15:56:17.107Z,84.60
2017-11-11T15:58:44.632Z,85.10
2017-11-11T16:01:12.127Z,85.20
2017-11-11T16:03:39.646Z,85.50
2017-11-11T16:06:07.831Z,85.50
2017-11-11T16:08:35.380Z,85.70
2017-11-11T16:11:02.877Z,85.70
2017-11-11T16:13:30.370Z,85.70
2017-11-11T16:15:57.877Z,85.90
2017-11-11T16:18:25.416Z,86.20
2017-11-11T16:20:53.004Z,86.10
2017-11-11T16:23:20.530Z,86.30
2017-11-11T16:25:48.790Z,86.60
2017-11-11T16:28:17.060Z,86.70
2017-11-11T16:30:44.639Z,86.70
2017-11-11T16:33:12.904Z,86.40
2017-11-11T16:35:41.178Z,86.30
2017-11-11T16:38:09.453Z,86.20
2017-11-11T16:40:36.972Z,86.10
2017-11-11T16:43:04.464Z,86.70
2017-11-11T16:45:31.960Z,86.10
2017-11-11T16:47:59.465Z,86.30
2017-11-11T16:50:27.343Z,86.20
2017-11-11T16:52:55.579Z,86.10
2017-11-11T16:55:23.136Z,85.90
2017-11-11T16:57:50.637Z,86.00
2017-11-11T17:00:18.141Z,86.10
2017-11-11T17:02:45.616Z,86.80
2017-11-11T17:05:13.107Z,86.00
2017-11-11T17:07:40.595Z,85.70
2017-11-11T17:10:08.874Z,85.50
2017-11-11T17:12:37.144Z,85.70
2017-11-11T17:15:05.989Z,85.70
2017-11-11T17:17:33.733Z,85.70
2017-11-11T17:20:01.261Z,85.60
2017-11-11T17:22:29.862Z,85.60
2017-11-11T17:24:57.471Z,85.60
2017-11-11T17:27:24.987Z,85.30
2017-11-11T17:29:52.487Z,85.40
2017-11-11T17:32:19.980Z,85.30
2017-11-11T17:34:48.585Z,85.30
2017-11-11T17:37:16.064Z,85.30
2017-11-11T17:39:43.562Z,85.20
2017-11-11T17:42:11.713Z,85.00
2017-11-11T17:44:39.228Z,85.80
2017-11-11T17:47:06.737Z,85.00
2017-11-11T17:49:34.232Z,84.90
2017-11-11T17:52:02.493Z,85.20
2017-11-11T17:54:30.024Z,85.10
2017-11-11T17:56:57.534Z,85.30
2017-11-11T17:59:25.789Z,85.60
2017-11-11T18:01:53.783Z,85.60
2017-11-11T18:04:21.286Z,85.50
2017-11-11T18:06:48.812Z,85.50
2017-11-11T18:09:17.266Z,85.60
2017-11-11T18:11:45.525Z,86.30
2017-11-11T18:14:13.018Z,85.50
2017-11-11T18:16:41.278Z,85.20
2017-11-11T18:19:09.553Z,85.00
2017-11-11T18:21:41.676Z,85.70
2017-11-11T18:24:09.172Z,85.00
2017-11-11T18:26:36.809Z,84.60
2017-11-11T18:29:04.328Z,84.50
2017-11-11T18:31:31.850Z,84.60
2017-11-11T18:33:59.375Z,84.60
2017-11-11T18:36:26.856Z,84.50
2017-11-11T18:38:54.380Z,84.20
2017-11-11T18:41:22.860Z,84.00
2017-11-11T18:43:50.382Z,84.30
2017-11-11T18:46:18.652Z,84.60
2017-11-11T18:48:48.349Z,84.50
2017-11-11T18:51:15.950Z,85.20
2017-11-11T18:53:43.442Z,84.60
2017-11-11T18:56:10.964Z,84.70
2017-11-11T18:58:38.457Z,84.80
2017-11-11T19:01:05.965Z,84.30
2017-11-11T19:03:34.541Z,84.10
2017-11-11T19:06:02.039Z,84.10
2017-11-11T19:08:29.537Z,84.00
2017-11-11T19:10:57.067Z,84.00
2017-11-11T19:13:24.570Z,84.20
2017-11-11T19:15:52.863Z,83.90
2017-11-11T19:18:21.159Z,83.90
2017-11-11T19:20:49.609Z,83.70
2017-11-11T19:23:17.122Z,83.70
2017-11-11T19:25:44.640Z,83.80
2017-11-11T19:28:12.900Z,83.90
2017-11-11T19:30:40.437Z,83.90
2017-11-11T19:33:07.991Z,84.00
2017-11-11T19:35:35.476Z,84.20
2017-11-11T19:38:02.966Z,84.40
2017-11-11T19:40:30.563Z,84.30
2017-11-11T19:42:58.053Z,84.50
2017-11-11T19:45:25.650Z,84.50
2017-11-11T19:47:53.169Z,84.60
2017-11-11T19:50:20.653Z,84.60
2017-11-11T19:52:48.928Z,85.00
2017-11-11T19:55:17.268Z,85.00
2017-11-11T19:57:44.759Z,85.00
2017-11-11T20:00:13.041Z,84.90
2017-11-11T20:02:41.293Z,85.10
2017-11-11T20:05:09.631Z,85.30
2017-11-11T20:07:38.018Z,85.40
2017-11-11T20:10:05.547Z,85.20
2017-11-11T20:12:33.042Z,85.10
2017-11-11T20:15:00.540Z,85.20
2017-11-11T20:17:28.054Z,85.40
2017-11-11T20:19:55.556Z,85.50
2017-11-11T20:22:23.095Z,85.50
2017-11-11T20:24:50.658Z,84.70
2017-11-11T20:27:18.154Z,85.50
2017-11-11T20:29:46.413Z,86.40
2017-11-11T20:32:13.916Z,85.60
2017-11-11T20:34:41.438Z,85.50
2017-11-11T20:37:09.706Z,85.70
2017-11-11T20:39:37.987Z,85.50
2017-11-11T20:42:06.254Z,86.10
2017-11-11T20:44:33.973Z,85.40
2017-11-11T20:47:01.514Z,85.30
2017-11-11T20:49:29.057Z,85.30
2017-11-11T20:51:56.591Z,85.20
2017-11-11T20:54:24.115Z,85.30
2017-11-11T20:56:51.644Z,85.30
2017-11-11T20:59:19.135Z,85.20
2017-11-11T21:01:46.644Z,85.10
2017-11-11T21:04:14.908Z,85.30
2017-11-11T21:06:42.402Z,85.30
2017-11-11T21:09:09.894Z,85.30
2017-11-11T21:11:37.406Z,85.40
2017-11-11T21:14:05.868Z,85.30
2017-11-11T21:16:33.660Z,85.20
2017-11-11T21:19:01.264Z,85.20
2017-11-11T21:21:28.756Z,85.40
2017-11-11T21:23:56.297Z,85.70
2017-11-11T21:26:23.796Z,85.50
2017-11-11T21:28:52.071Z,85.60
2017-11-11T21:31:20.346Z,85.60
2017-11-11T21:33:48.612Z,85.70
2017-11-11T21:36:16.886Z,85.60
2017-11-11T21:38:45.156Z,85.80
2017-11-11T21:41:12.678Z,85.60
2017-11-11T21:43:40.384Z,85.80
2017-11-11T21:46:08.658Z,85.80
2017-11-11T21:48:36.953Z,86.00
2017-11-11T21:51:05.214Z,85.60
2017-11-11T21:53:33.502Z,85.80
2017-11-11T21:56:01.768Z,85.80
2017-11-11T21:58:30.258Z,85.70
2017-11-11T22:00:57.789Z,85.70
2017-11-11T22:03:25.394Z,86.50
2017-11-11T22:05:52.916Z,85.50
2017-11-11T22:08:20.406Z,85.20
2017-11-11T22:10:48.670Z,85.20
2017-11-11T22:13:16.970Z,85.40
2017-11-11T22:15:44.476Z,85.40
2017-11-11T22:18:12.003Z,85.20
2017-11-11T22:20:40.630Z,84.90
2017-11-11T22:23:08.134Z,84.80
2017-11-11T22:25:35.695Z,84.50
2017-11-11T22:28:03.207Z,84.30
2017-11-11T22:30:30.842Z,84.20
2017-11-11T22:32:58.388Z,84.70
2017-11-11T22:35:25.894Z,84.50
2017-11-11T22:37:53.405Z,84.10
2017-11-11T22:40:21.173Z,84.00
2017-11-11T22:42:48.709Z,84.20
2017-11-11T22:45:16.241Z,84.10
2017-11-11T22:47:44.505Z,84.10
2017-11-11T22:50:12.035Z,84.10
2017-11-11T22:52:39.543Z,84.20
2017-11-11T22:55:07.830Z,84.30
2017-11-11T22:57:36.970Z,84.20
2017-11-11T23:00:04.525Z,84.20
2017-11-11T23:02:32.026Z,83.90
2017-11-11T23:04:59.535Z,83.70
2017-11-11T23:07:27.117Z,83.90
2017-11-11T23:09:54.975Z,84.10
2017-11-11T23:12:22.472Z,84.10
2017-11-11T23:14:50.068Z,84.00
2017-11-11T23:17:17.554Z,84.10
2017-11-11T23:19:45.058Z,84.30
2017-11-11T23:22:13.337Z,84.40
2017-11-11T23:24:41.610Z,84.30
2017-11-11T23:27:09.882Z,84.50
2017-11-11T23:29:37.477Z,84.40
2017-11-11T23:32:04.995Z,84.70
2017-11-11T23:34:32.596Z,84.60
2017-11-11T23:37:00.169Z,85.20
2017-11-11T23:39:27.675Z,84.30
2017-11-11T23:41:55.161Z,84.30
2017-11-11T23:44:23.446Z,84.30
2017-11-11T23:46:50.947Z,84.20
2017-11-11T23:49:18.613Z,84.00
2017-11-11T23:51:46.226Z,84.20
2017-11-11T23:54:13.827Z,84.30
2017-11-11T23:56:41.325Z,84.10
2017-11-11T23:59:09.585Z,83.90
